createdAt,value
2019-02-28T00:00:41.358Z,86.1
2019-02-28T00:05:06.907Z,86.9
2019-02-28T00:10:18.442Z,85.9
2019-02-28T00:15:23.525Z,88.2
2019-02-28T00:20:02.501Z,88.1
2019-02-28T00:25:15.119Z,91.4
2019-02-28T00:30:10.562Z,99.9
2019-02-28T00:35:05.193Z,99.9
2019-02-28T00:40:07.567Z,99.9
2019-02-28T00:45:04.984Z,99.9
2019-02-28T00:50:05.509Z,99.9
2019-02-28T00:55:15.495Z,99.1
2019-02-28T01:00:06.430Z,99.1
2019-02-28T01:05:06.219Z,92.3
2019-02-28T01:10:05.427Z,88.8
2019-02-28T01:15:10.759Z,87
2019-02-28T01:20:05.045Z,83.1
2019-02-28T01:25:07.116Z,83.2
2019-02-28T01:30:03.127Z,79.2
2019-02-28T01:35:06.927Z,77.1
2019-02-28T01:40:05.840Z,77.2
2019-02-28T01:45:10.881Z,77.9
2019-02-28T01:50:10.881Z,78.7
2019-02-28T01:55:05.726Z,80.1
2019-02-28T02:00:05.725Z,81.8
2019-02-28T02:05:10.715Z,82.2
2019-02-28T02:10:05.653Z,83.4
2019-02-28T02:15:02.550Z,83.2
2019-02-28T02:20:02.572Z,84.6
2019-02-28T02:25:05.021Z,88.3
2019-02-28T02:30:15.732Z,90.4
2019-02-28T02:35:08.508Z,90.4
2019-02-28T02:40:05.453Z,92.3
2019-02-28T02:45:06.820Z,93.8
2019-02-28T02:50:05.166Z,96.4
2019-02-28T02:55:02.953Z,96.4
2019-02-28T03:00:02.459Z,98.6
2019-02-28T03:05:10.670Z,99.9
2019-02-28T03:10:10.645Z,99.9
2019-02-28T03:15:07.924Z,99.9
2019-02-28T03:20:09.102Z,99.9
2019-02-28T03:25:08.303Z,99.9
2019-02-28T03:30:03.207Z,99.9
2019-02-28T03:35:15.854Z,99.9
2019-02-28T03:40:05.497Z,99.9
2019-02-28T03:45:22.743Z,99.9
2019-02-28T03:50:05.414Z,99.9
2019-02-28T03:55:13.034Z,99.9
2019-02-28T04:00:08.098Z,99.9
2019-02-28T04:05:02.771Z,99.9
2019-02-28T04:10:08.283Z,99.9
2019-02-28T04:15:11.479Z,99.9
2019-02-28T04:20:02.484Z,99.9
2019-02-28T04:25:33.445Z,99.9
2019-02-28T04:30:08.693Z,99.9
2019-02-28T04:35:15.472Z,99.9
2019-02-28T04:40:06.709Z,99.9
2019-02-28T04:45:02.668Z,99.9
2019-02-28T04:50:02.562Z,99.9
2019-02-28T04:55:04.088Z,99.9
2019-02-28T05:00:25.749Z,99.9
2019-02-28T05:05:13.580Z,99.9
2019-02-28T05:10:05.048Z,99.9
2019-02-28T05:15:10.524Z,99.9
2019-02-28T05:20:02.545Z,99.9
2019-02-28T05:25:05.011Z,99.9
2019-02-28T05:30:02.934Z,99.9
2019-02-28T05:35:26.906Z,99.9
2019-02-28T05:40:07.037Z,99.9
2019-02-28T05:45:08.218Z,99.9
2019-02-28T05:50:05.284Z,99.9
2019-02-28T05:55:26.058Z,99.9
2019-02-28T06:00:10.143Z,99.9
2019-02-28T06:05:03.330Z,99.9
2019-02-28T06:10:12.777Z,99.9
2019-02-28T06:15:20.337Z,99.9
2019-02-28T06:20:03.353Z,99.9
2019-02-28T06:25:31.133Z,99.9
2019-02-28T06:30:09.511Z,99.9
2019-02-28T06:35:07.950Z,99.9
2019-02-28T06:40:02.986Z,99.9
2019-02-28T06:45:03.992Z,99.9
2019-02-28T06:50:03.276Z,99.9
2019-02-28T06:55:08.209Z,99.9
2019-02-28T07:00:14.140Z,99.9
2019-02-28T07:05:05.771Z,99.9
2019-02-28T07:10:09.593Z,99.9
2019-02-28T07:15:02.597Z,99.9
2019-02-28T07:20:27.994Z,99.9
2019-02-28T07:25:13.700Z,99.9
2019-02-28T07:30:05.368Z,99.9
2019-02-28T07:35:17.669Z,99.9
2019-02-28T07:40:17.029Z,99.9
2019-02-28T07:45:02.943Z,99.9
2019-02-28T07:50:10.848Z,99.9
2019-02-28T07:55:03.155Z,99.9
2019-02-28T08:00:02.982Z,99.9
2019-02-28T08:05:03.259Z,99.9
2019-02-28T08:10:05.042Z,99.9
2019-02-28T08:15:05.839Z,99.9
2019-02-28T08:20:23.667Z,99.9
2019-02-28T08:25:08.763Z,99.9
2019-02-28T08:30:10.646Z,99.9
2019-02-28T08:35:05.009Z,99.9
2019-02-28T08:40:27.240Z,99.9
2019-02-28T08:45:07.639Z,99.9
2019-02-28T08:50:07.549Z,99.9
2019-02-28T08:55:09.464Z,99.9
2019-02-28T09:00:21.033Z,99.9
2019-02-28T09:05:03.314Z,99.9
2019-02-28T09:10:17.775Z,99.9
2019-02-28T09:15:08.447Z,99.9
2019-02-28T09:20:03.361Z,99.9
2019-02-28T09:25:13.305Z,99.9
2019-02-28T09:30:05.677Z,99.9
2019-02-28T09:35:15.627Z,99.9
2019-02-28T09:40:08.387Z,99.9
2019-02-28T09:45:07.928Z,99.9
2019-02-28T09:50:05.735Z,99.9
2019-02-28T09:55:10.318Z,99.9
2019-02-28T10:00:05.339Z,99.9
2019-02-28T10:05:07.759Z,99.9
2019-02-28T10:10:05.541Z,99.9
2019-02-28T10:15:07.941Z,99.9
2019-02-28T10:20:02.821Z,99.9
2019-02-28T10:25:10.296Z,99.9
2019-02-28T10:30:03.090Z,99.9
2019-02-28T10:35:03.265Z,99.9
2019-02-28T10:40:07.572Z,99.9
2019-02-28T10:45:07.650Z,99.9
2019-02-28T10:50:10.079Z,99.9
2019-02-28T10:55:05.881Z,99.9
2019-02-28T11:00:07.787Z,99.9
2019-02-28T11:05:08.197Z,99.9
2019-02-28T11:10:07.624Z,99.9
2019-02-28T11:15:20.681Z,99.9
2019-02-28T11:20:02.977Z,99.9
2019-02-28T11:25:13.461Z,99.9
2019-02-28T11:30:03.311Z,99.9
2019-02-28T11:35:02.447Z,99.9
2019-02-28T11:40:08.457Z,99.9
2019-02-28T11:45:07.585Z,99.9
2019-02-28T11:50:10.723Z,99.9
2019-02-28T11:55:05.506Z,99.9
2019-02-28T12:00:03.330Z,99.9
2019-02-28T12:05:05.225Z,99.9
2019-02-28T12:10:05.060Z,99.9
2019-02-28T12:15:07.545Z,99.9
2019-02-28T12:20:17.843Z,99.9
2019-02-28T12:25:07.537Z,99.9
2019-02-28T12:30:26.029Z,99.9
2019-02-28T12:35:08.001Z,99.9
2019-02-28T12:40:03.310Z,99.9
2019-02-28T12:45:03.199Z,99.9
2019-02-28T12:50:35.918Z,93.5
2019-02-28T12:55:04.869Z,99.9
2019-02-28T13:00:10.408Z,99.9
2019-02-28T13:05:02.751Z,99.9
2019-02-28T13:10:05.924Z,99.9
2019-02-28T13:15:05.839Z,99.9
2019-02-28T13:20:05.252Z,99.9
2019-02-28T13:25:12.032Z,99.9
2019-02-28T13:30:10.307Z,99.9
2019-02-28T13:35:10.754Z,99.9
2019-02-28T13:40:13.191Z,99.9
2019-02-28T13:45:03.303Z,99.9
2019-02-28T13:50:05.269Z,99.9
2019-02-28T13:55:06.404Z,80.7
2019-02-28T14:00:08.976Z,99.9
2019-02-28T14:05:10.344Z,99.9
2019-02-28T14:10:05.360Z,99.9
2019-02-28T14:15:03.012Z,99.9
2019-02-28T14:20:02.967Z,99.9
2019-02-28T14:25:06.347Z,99.9
2019-02-28T14:30:03.219Z,99.9
2019-02-28T14:35:05.144Z,99.9
2019-02-28T14:40:05.025Z,99.9
2019-02-28T14:45:15.403Z,99.9
2019-02-28T14:50:05.106Z,99.9
2019-02-28T14:55:13.331Z,99.9
2019-02-28T15:00:07.306Z,99.9
2019-02-28T15:05:12.974Z,99.9
2019-02-28T15:10:03.271Z,99.9
2019-02-28T15:15:17.941Z,99.9
2019-02-28T15:20:15.737Z,99.9
2019-02-28T15:25:04.949Z,99.9
2019-02-28T15:30:23.079Z,99.9
2019-02-28T15:35:02.692Z,99.9
2019-02-28T15:40:12.674Z,99.9
2019-02-28T15:45:08.120Z,99.9
2019-02-28T15:50:03.013Z,99.9
2019-02-28T15:55:10.336Z,99.9
2019-02-28T16:00:30.915Z,99.9
2019-02-28T16:05:17.968Z,99.9
2019-02-28T16:10:05.749Z,99.9
2019-02-28T16:15:03.153Z,99.9
2019-02-28T16:20:10.189Z,99.9
2019-02-28T16:25:04.998Z,99.9
2019-02-28T16:30:05.400Z,99.9
2019-02-28T16:35:02.740Z,99.9
2019-02-28T16:40:10.786Z,99.9
2019-02-28T16:45:07.747Z,99.9
2019-02-28T16:50:02.612Z,99.9
2019-02-28T16:55:05.629Z,99.9
2019-02-28T17:00:08.656Z,99.9
2019-02-28T17:05:10.939Z,99.9
2019-02-28T17:10:15.246Z,99.9
2019-02-28T17:15:02.453Z,99.9
2019-02-28T17:20:07.124Z,99.9
2019-02-28T17:25:05.543Z,99.9
2019-02-28T17:30:11.006Z,99.9
2019-02-28T17:35:15.425Z,99.9
2019-02-28T17:40:05.910Z,99.9
2019-02-28T17:45:05.757Z,99.9
2019-02-28T17:50:08.454Z,99.9
2019-02-28T17:55:02.531Z,99.9
2019-02-28T18:00:21.061Z,99.9
2019-02-28T18:05:13.491Z,99.9
2019-02-28T18:10:10.386Z,99.9
2019-02-28T18:15:09.698Z,99.9
2019-02-28T18:20:18.103Z,99.9
2019-02-28T18:25:17.146Z,99.9
2019-02-28T18:30:05.235Z,99.9
2019-02-28T18:35:13.040Z,99.9
2019-02-28T18:40:03.313Z,99.9
2019-02-28T18:45:22.358Z,99.9
2019-02-28T18:50:08.442Z,99.9
2019-02-28T18:55:06.716Z,99.9
2019-02-28T19:00:25.463Z,99.9
2019-02-28T19:05:23.503Z,99.9
2019-02-28T19:10:07.857Z,99.9
2019-02-28T19:15:02.744Z,99.9
2019-02-28T19:20:02.634Z,99.9
2019-02-28T19:25:04.987Z,99.9
2019-02-28T19:30:07.897Z,99.9
2019-02-28T19:35:10.288Z,99.9
2019-02-28T19:40:12.662Z,99.9
2019-02-28T19:45:05.038Z,99.9
2019-02-28T19:50:02.824Z,99.9
2019-02-28T19:55:27.975Z,99.9
2019-02-28T20:00:02.823Z,99.9
2019-02-28T20:05:07.679Z,99.9
2019-02-28T20:10:02.921Z,99.9
2019-02-28T20:15:10.362Z,99.9
2019-02-28T20:20:05.790Z,99.9
2019-02-28T20:25:13.243Z,99.9
2019-02-28T20:30:03.097Z,99.9
2019-02-28T20:35:13.054Z,99.9
2019-02-28T20:40:14.296Z,99.9
2019-02-28T20:45:02.966Z,99.9
2019-02-28T20:50:07.889Z,99.9
2019-02-28T20:55:05.216Z,99.9
2019-02-28T21:00:03.067Z,99.9
2019-02-28T21:05:15.719Z,99.9
2019-02-28T21:10:02.948Z,99.9
2019-02-28T21:15:07.826Z,99.9
2019-02-28T21:20:02.695Z,99.9
2019-02-28T21:25:10.123Z,99.9
2019-02-28T21:30:07.977Z,99.9
2019-02-28T21:35:20.476Z,99.9
2019-02-28T21:40:10.310Z,99.9
2019-02-28T21:45:05.219Z,99.9
2019-02-28T21:50:03.082Z,99.9
2019-02-28T21:55:10.434Z,99.9
2019-02-28T22:00:21.033Z,99.9
2019-02-28T22:05:18.306Z,99.9
2019-02-28T22:10:12.696Z,99.9
2019-02-28T22:15:03.380Z,99.9
2019-02-28T22:20:10.927Z,99.9
2019-02-28T22:25:10.709Z,99.9
2019-02-28T22:30:17.735Z,99.9
2019-02-28T22:35:02.894Z,99.9
2019-02-28T22:40:05.792Z,99.9
2019-02-28T22:45:15.436Z,99.9
2019-02-28T22:50:03.310Z,99.9
2019-02-28T22:55:13.179Z,99.9
2019-02-28T23:00:03.029Z,99.9
2019-02-28T23:05:05.393Z,99.9
2019-02-28T23:10:15.302Z,99.9
2019-02-28T23:15:22.749Z,99.9
2019-02-28T23:20:25.384Z,99.9
2019-02-28T23:25:03.251Z,99.9
2019-02-28T23:30:10.701Z,99.9
2019-02-28T23:35:07.944Z,99.9
2019-02-28T23:40:20.184Z,99.9
2019-02-28T23:45:03.265Z,99.9
2019-02-28T23:50:03.157Z,99.9
2019-02-28T23:55:05.469Z,99.9
